createdAt,value
2019-06-20T00:01:23.625Z,99490.75
2019-06-20T00:05:45.857Z,99487.91
2019-06-20T00:09:32.446Z,99486.28
2019-06-20T00:12:17.873Z,99484.78
2019-06-20T00:15:25.485Z,99484.52
2019-06-20T00:18:22.003Z,99477.89
2019-06-20T00:21:24.463Z,99471.55
2019-06-20T00:24:18.882Z,99466.06
2019-06-20T00:27:27.302Z,99470.83
2019-06-20T00:30:40.418Z,99466.06
2019-06-20T00:33:52.443Z,99460.80
2019-06-20T00:41:08.038Z,99482.67
2019-06-20T00:43:56.755Z,99548.88
2019-06-20T00:46:40.388Z,99583.05
2019-06-20T00:49:45.335Z,99590.65
2019-06-20T00:52:31.489Z,99562.78
2019-06-20T00:55:14.649Z,99608.00
2019-06-20T00:58:03.767Z,99618.84
2019-06-20T01:00:40.526Z,99597.39
2019-06-20T01:03:12.283Z,99561.37
2019-06-20T01:05:48.571Z,99563.66
2019-06-20T01:08:24.913Z,99588.27
2019-06-20T01:10:56.895Z,99598.73
2019-06-20T01:13:37.435Z,99595.87
2019-06-20T01:16:17.526Z,99590.84
2019-06-20T01:18:53.910Z,99602.91
2019-06-20T01:21:30.284Z,99614.97
2019-06-20T01:24:00.813Z,99609.75
2019-06-20T01:26:39.605Z,99608.70
2019-06-20T01:29:19.349Z,99614.77
2019-06-20T01:32:24.375Z,99622.96
2019-06-20T01:35:05.586Z,99621.84
2019-06-20T01:37:39.869Z,99617.85
2019-06-20T01:40:21.658Z,99627.51
2019-06-20T01:43:00.208Z,99630.00
2019-06-20T01:45:43.508Z,99617.66
2019-06-20T01:48:16.304Z,99613.23
2019-06-20T01:50:57.599Z,99609.81
2019-06-20T01:53:34.326Z,99601.73
2019-06-20T01:56:03.915Z,99601.55
2019-06-20T01:59:30.397Z,99615.39
2019-06-20T02:02:07.933Z,99612.46
2019-06-20T02:04:46.525Z,99609.78
2019-06-20T02:07:22.427Z,99613.32
2019-06-20T02:10:00.545Z,99611.61
2019-06-20T02:12:37.084Z,99605.44
2019-06-20T02:15:15.861Z,99588.67
2019-06-20T02:17:46.486Z,99586.87
2019-06-20T02:20:31.482Z,99584.48
2019-06-20T02:23:01.839Z,99568.04
2019-06-20T02:25:39.914Z,99563.52
2019-06-20T02:28:10.541Z,99559.52
2019-06-20T02:30:41.261Z,99557.66
2019-06-20T02:33:14.043Z,99550.25
2019-06-20T02:35:44.485Z,99538.13
2019-06-20T02:38:15.919Z,99525.16
2019-06-20T02:40:46.230Z,99515.26
2019-06-20T02:43:16.537Z,99518.66
2019-06-20T02:45:46.855Z,99524.01
2019-06-20T02:48:20.151Z,99530.07
2019-06-20T02:50:53.602Z,99541.79
2019-06-20T02:53:26.072Z,99552.81
2019-06-20T02:55:56.471Z,99566.03
2019-06-20T02:58:29.697Z,99566.04
2019-06-20T03:01:00.919Z,99561.96
2019-06-20T03:03:32.147Z,99571.59
2019-06-20T03:06:02.709Z,99578.83
2019-06-20T03:08:34.189Z,99588.25
2019-06-20T03:11:04.873Z,99597.22
2019-06-20T03:13:35.237Z,99608.00
2019-06-20T03:16:05.665Z,99613.31
2019-06-20T03:18:36.053Z,99616.66
2019-06-20T03:21:06.728Z,99618.42
2019-06-20T03:23:37.069Z,99616.91
2019-06-20T03:26:07.408Z,99621.90
2019-06-20T03:28:38.048Z,99625.80
2019-06-20T03:31:08.689Z,99616.66
2019-06-20T03:33:39.359Z,99616.34
2019-06-20T03:36:09.732Z,99617.81
2019-06-20T03:38:42.323Z,99609.10
2019-06-20T03:41:12.698Z,99609.14
2019-06-20T03:43:45.035Z,99613.41
2019-06-20T03:46:16.491Z,99601.00
2019-06-20T03:48:46.799Z,99594.45
2019-06-20T03:51:17.082Z,99597.30
2019-06-20T03:53:50.479Z,99598.68
2019-06-20T03:56:21.087Z,99607.41
2019-06-20T03:58:53.347Z,99631.78
2019-06-20T04:01:31.492Z,99650.81
2019-06-20T04:04:01.876Z,99651.40
2019-06-20T04:06:32.781Z,99644.00
2019-06-20T04:09:04.679Z,99653.30
2019-06-20T04:11:37.159Z,99695.83
2019-06-20T04:14:07.768Z,99797.91
2019-06-20T04:16:38.399Z,99790.36
2019-06-20T04:19:08.866Z,99762.77
2019-06-20T04:21:39.622Z,99779.00
2019-06-20T04:24:10.428Z,99804.64
2019-06-20T04:26:43.573Z,99794.05
2019-06-20T04:29:15.724Z,99792.91
2019-06-20T04:31:46.031Z,99811.03
2019-06-20T04:34:17.769Z,99812.96
2019-06-20T04:36:48.401Z,99817.80
2019-06-20T04:39:19.893Z,99812.16
2019-06-20T04:41:50.330Z,99809.77
2019-06-20T04:44:21.936Z,99813.47
2019-06-20T04:47:00.972Z,99802.00
2019-06-20T04:49:31.260Z,99787.08
2019-06-20T04:52:01.568Z,99800.67
2019-06-20T04:54:33.019Z,99800.79
2019-06-20T04:57:03.325Z,99794.56
2019-06-20T04:59:33.644Z,99795.89
2019-06-20T05:02:05.405Z,99788.44
2019-06-20T05:04:35.944Z,99786.80
2019-06-20T05:07:16.540Z,99792.92
2019-06-20T05:09:48.964Z,99800.81
2019-06-20T05:12:22.398Z,99810.55
2019-06-20T05:14:52.895Z,99806.37
2019-06-20T05:17:26.173Z,99785.99
2019-06-20T05:20:01.656Z,99788.14
2019-06-20T05:22:51.315Z,99792.06
2019-06-20T05:25:27.515Z,99793.73
2019-06-20T05:27:58.473Z,99789.90
2019-06-20T05:30:32.134Z,99789.59
2019-06-20T05:33:02.812Z,99813.83
2019-06-20T05:35:38.637Z,99826.00
2019-06-20T05:38:13.346Z,99816.22
2019-06-20T05:40:47.054Z,99803.75
2019-06-20T05:43:18.799Z,99802.16
2019-06-20T05:46:08.265Z,99835.54
2019-06-20T05:48:56.155Z,99837.27
2019-06-20T05:51:24.526Z,99833.31
2019-06-20T05:54:30.213Z,99830.79
2019-06-20T05:57:14.765Z,99815.06
2019-06-20T06:00:30.477Z,99799.95
2019-06-20T06:03:06.975Z,99784.36
2019-06-20T06:06:22.409Z,99803.39
2019-06-20T06:09:24.748Z,99798.34
2019-06-20T06:12:14.228Z,99786.77
2019-06-20T06:15:10.081Z,99782.11
2019-06-20T06:17:42.344Z,99773.59
2019-06-20T06:20:20.018Z,99762.80
2019-06-20T06:22:50.371Z,99760.13
2019-06-20T06:25:20.996Z,99755.81
2019-06-20T06:27:52.519Z,99752.05
2019-06-20T06:30:25.824Z,99751.67
2019-06-20T06:32:56.522Z,99748.77
2019-06-20T06:35:27.473Z,99749.81
2019-06-20T06:38:01.644Z,99754.63
2019-06-20T06:40:32.011Z,99751.98
2019-06-20T06:43:02.431Z,99758.84
2019-06-20T06:45:33.430Z,99756.84
2019-06-20T06:48:03.812Z,99759.30
2019-06-20T06:50:34.279Z,99768.17
2019-06-20T06:53:04.848Z,99770.45
2019-06-20T06:55:39.042Z,99771.79
2019-06-20T06:58:10.766Z,99775.72
2019-06-20T07:01:10.719Z,99782.00
2019-06-20T07:07:12.883Z,99779.95
2019-06-20T07:10:09.093Z,99770.80
2019-06-20T07:13:21.237Z,99768.89
2019-06-20T07:16:18.725Z,99762.41
2019-06-20T07:18:55.382Z,99759.00
2019-06-20T07:21:33.133Z,99761.80
2019-06-20T07:24:05.155Z,99756.25
2019-06-20T07:26:38.899Z,99757.68
2019-06-20T07:29:09.802Z,99758.33
2019-06-20T07:31:40.696Z,99771.79
2019-06-20T07:34:11.457Z,99768.67
2019-06-20T07:36:41.784Z,99768.44
2019-06-20T07:39:12.425Z,99767.01
2019-06-20T07:41:43.652Z,99766.29
2019-06-20T07:44:14.154Z,99769.90
2019-06-20T07:46:53.647Z,99765.36
2019-06-20T07:50:00.540Z,99773.06
2019-06-20T07:52:34.143Z,99772.09
2019-06-20T07:55:04.775Z,99772.87
2019-06-20T07:57:35.378Z,99779.70
2019-06-20T08:00:11.136Z,99783.50
2019-06-20T08:02:42.009Z,99769.67
2019-06-20T08:05:18.337Z,99771.31
2019-06-20T08:07:54.230Z,99772.60
2019-06-20T08:10:34.111Z,99776.53
2019-06-20T08:13:32.595Z,99785.19
2019-06-20T08:16:21.297Z,99787.02
2019-06-20T08:19:00.341Z,99795.87
2019-06-20T08:24:44.473Z,99784.22
2019-06-20T08:27:47.317Z,99785.95
2019-06-20T08:30:52.694Z,99781.08
2019-06-20T08:34:04.593Z,99786.22
2019-06-20T08:36:40.999Z,99780.91
2019-06-20T08:39:13.732Z,99778.75
2019-06-20T08:41:48.474Z,99780.47
2019-06-20T08:44:18.964Z,99778.86
2019-06-20T08:50:15.268Z,99774.22
2019-06-20T08:53:01.874Z,99773.84
2019-06-20T08:56:38.245Z,99778.77
2019-06-20T09:03:06.790Z,99770.83
2019-06-20T09:06:13.531Z,99782.52
2019-06-20T09:09:02.469Z,99777.16
2019-06-20T09:12:06.152Z,99776.42
2019-06-20T09:14:56.960Z,99788.95
2019-06-20T09:17:45.502Z,99789.11
2019-06-20T09:21:03.142Z,99781.13
2019-06-20T09:25:03.248Z,99784.05
2019-06-20T09:27:43.984Z,99780.22
2019-06-20T09:30:57.012Z,99772.96
2019-06-20T09:33:48.110Z,99776.62
2019-06-20T09:37:40.283Z,99782.06
2019-06-20T09:40:21.528Z,99778.89
2019-06-20T09:43:32.267Z,99788.89
2019-06-20T09:47:27.444Z,99785.02
2019-06-20T09:49:33.686Z,99795.22
2019-06-20T09:52:05.928Z,99796.80
2019-06-20T09:54:36.627Z,99799.10
2019-06-20T09:57:10.260Z,99789.40
2019-06-20T10:23:14.321Z,99805.55
2019-06-20T10:29:09.994Z,99803.50
2019-06-20T10:31:47.386Z,99804.94
2019-06-20T10:34:37.353Z,99807.50
2019-06-20T10:37:14.262Z,99799.97
2019-06-20T10:39:46.067Z,99806.50
2019-06-20T10:42:53.750Z,99803.38
2019-06-20T10:46:03.348Z,99801.81
2019-06-20T10:52:00.621Z,99807.10
2019-06-20T10:54:49.769Z,99814.70
2019-06-20T10:57:23.725Z,99813.59
2019-06-20T11:00:29.752Z,99808.70
2019-06-20T11:02:49.574Z,99815.34
2019-06-20T11:05:20.558Z,99812.73
2019-06-20T11:07:53.838Z,99814.84
2019-06-20T11:10:30.498Z,99813.78
2019-06-20T11:13:11.304Z,99810.86
2019-06-20T11:19:48.074Z,99808.28
2019-06-20T11:22:20.238Z,99813.55
2019-06-20T11:24:58.649Z,99818.00
2019-06-20T11:28:02.623Z,99815.81
2019-06-20T11:31:00.684Z,99810.64
2019-06-20T11:33:49.315Z,99813.62
2019-06-20T11:36:48.393Z,99815.88
2019-06-20T11:39:47.697Z,99814.73
2019-06-20T11:43:00.705Z,99816.88
2019-06-20T11:45:47.981Z,99812.76
2019-06-20T11:48:27.066Z,99810.95
2019-06-20T11:51:11.353Z,99805.84
2019-06-20T11:54:00.494Z,99808.63
2019-06-20T11:56:55.826Z,99806.16
2019-06-20T11:59:51.945Z,99802.68
2019-06-20T12:02:50.286Z,99800.42
2019-06-20T12:05:23.769Z,99799.92
2019-06-20T12:08:03.533Z,99798.24
2019-06-20T12:10:34.717Z,99797.56
2019-06-20T12:13:09.386Z,99801.59
2019-06-20T12:16:39.104Z,99791.35
2019-06-20T12:19:46.733Z,99791.27
2019-06-20T12:22:20.457Z,99783.28
2019-06-20T12:24:51.197Z,99784.07
2019-06-20T12:27:33.105Z,99783.58
2019-06-20T12:30:14.275Z,99772.48
2019-06-20T12:32:46.752Z,99768.25
2019-06-20T12:35:50.869Z,99775.83
2019-06-20T12:49:41.795Z,99770.80
2019-06-20T12:52:54.119Z,99776.11
2019-06-20T12:56:08.218Z,99776.55
2019-06-20T12:58:57.915Z,99771.78
2019-06-20T13:02:08.790Z,99770.36
2019-06-20T13:05:54.117Z,99773.88
2019-06-20T13:09:17.181Z,99777.48
2019-06-20T13:16:04.717Z,99775.20
2019-06-20T13:19:14.093Z,99778.66
2019-06-20T13:22:49.311Z,99771.06
2019-06-20T13:24:51.370Z,99773.91
2019-06-20T13:28:13.249Z,99764.43
2019-06-20T13:34:56.951Z,99765.33
2019-06-20T13:38:08.759Z,99771.84
2019-06-20T13:41:07.115Z,99756.59
2019-06-20T13:44:19.551Z,99759.70
2019-06-20T13:47:31.670Z,99759.80
2019-06-20T13:50:35.668Z,99764.58
2019-06-20T13:53:29.792Z,99772.16
2019-06-20T13:57:15.091Z,99761.88
2019-06-20T14:00:19.207Z,99763.28
2019-06-20T14:03:28.623Z,99754.97
2019-06-20T14:06:30.858Z,99751.91
2019-06-20T14:09:35.232Z,99757.52
2019-06-20T14:12:33.788Z,99754.81
2019-06-20T14:16:12.718Z,99760.16
2019-06-20T14:19:26.068Z,99751.40
2019-06-20T14:23:00.794Z,99749.66
2019-06-20T14:26:17.084Z,99752.45
2019-06-20T14:33:59.493Z,99752.02
2019-06-20T14:40:25.733Z,99756.00
2019-06-20T14:43:17.491Z,99758.30
2019-06-20T14:46:07.900Z,99754.17
2019-06-20T14:49:27.916Z,99749.83
2019-06-20T14:54:31.618Z,99746.91
2019-06-20T14:55:59.198Z,99745.12
2019-06-20T15:03:12.438Z,99737.16
2019-06-20T15:11:55.128Z,99735.57
2019-06-20T15:13:44.427Z,99736.95
2019-06-20T15:16:57.186Z,99732.24
2019-06-20T15:19:29.249Z,99735.11
2019-06-20T15:22:00.464Z,99731.11
2019-06-20T15:25:12.478Z,99727.90
2019-06-20T15:27:55.308Z,99726.14
2019-06-20T15:31:13.010Z,99719.66
2019-06-20T15:34:02.272Z,99715.42
2019-06-20T15:37:22.870Z,99715.10
2019-06-20T15:40:41.866Z,99719.36
2019-06-20T15:44:09.907Z,99716.45
2019-06-20T15:47:30.418Z,99717.28
2019-06-20T15:51:26.002Z,99718.45
2019-06-20T15:54:57.683Z,99713.73
2019-06-20T15:56:58.211Z,99707.23
2019-06-20T16:00:20.675Z,99701.86
2019-06-20T16:03:09.836Z,99714.22
2019-06-20T16:09:20.988Z,99717.09
2019-06-20T16:12:02.551Z,99718.09
2019-06-20T16:14:55.405Z,99728.34
2019-06-20T16:17:39.165Z,99725.25
2019-06-20T16:20:18.075Z,99729.04
2019-06-20T16:22:57.048Z,99735.63
2019-06-20T16:25:57.889Z,99735.91
2019-06-20T16:29:15.256Z,99739.59
2019-06-20T16:31:57.383Z,99746.64
2019-06-20T16:34:39.237Z,99742.67
2019-06-20T16:37:18.007Z,99741.66
2019-06-20T16:40:14.708Z,99749.48
2019-06-20T16:43:11.765Z,99756.13
2019-06-20T16:49:43.799Z,99757.25
2019-06-20T16:52:36.765Z,99764.74
2019-06-20T16:55:32.036Z,99759.11
2019-06-20T17:02:07.556Z,99755.31
2019-06-20T17:04:31.214Z,99754.79
2019-06-20T17:07:38.671Z,99752.48
2019-06-20T17:10:26.305Z,99758.97
2019-06-20T17:14:09.888Z,99768.85
2019-06-20T17:17:13.326Z,99769.69
2019-06-20T17:20:07.059Z,99771.16
2019-06-20T17:22:59.361Z,99780.67
2019-06-20T17:25:38.669Z,99790.32
2019-06-20T17:28:42.170Z,99794.98
2019-06-20T17:31:49.900Z,99796.36
2019-06-20T17:34:31.878Z,99796.23
2019-06-20T17:37:18.990Z,99799.56
2019-06-20T17:40:41.691Z,99805.05
2019-06-20T17:43:23.743Z,99800.22
2019-06-20T17:49:20.666Z,99785.64
2019-06-20T17:51:52.344Z,99788.91
2019-06-20T17:54:35.690Z,99790.53
2019-06-20T17:57:13.447Z,99793.23
2019-06-20T17:59:46.289Z,99796.75
2019-06-20T18:02:19.583Z,99797.77
2019-06-20T18:04:50.512Z,99804.38
2019-06-20T18:07:29.333Z,99805.34
2019-06-20T18:10:11.962Z,99806.52
2019-06-20T18:13:14.606Z,99804.59
2019-06-20T18:15:53.423Z,99806.30
2019-06-20T18:18:52.872Z,99811.96
2019-06-20T18:23:23.819Z,99816.89
2019-06-20T18:25:39.330Z,99820.41
2019-06-20T18:28:19.939Z,99825.13
2019-06-20T18:31:08.287Z,99829.23
2019-06-20T18:34:29.123Z,99823.38
2019-06-20T18:37:27.688Z,99828.25
2019-06-20T18:39:45.234Z,99836.23
2019-06-20T18:42:47.642Z,99842.69
2019-06-20T18:45:31.380Z,99854.36
2019-06-20T18:48:04.444Z,99853.39
2019-06-20T18:50:52.155Z,99860.23
2019-06-20T18:53:38.911Z,99857.52
2019-06-20T18:56:46.352Z,99851.23
2019-06-20T18:59:35.294Z,99857.61
2019-06-20T19:02:28.246Z,99863.88
2019-06-20T19:05:15.406Z,99865.26
2019-06-20T19:07:51.202Z,99870.85
2019-06-20T19:10:51.685Z,99868.39
2019-06-20T19:13:48.104Z,99861.85
2019-06-20T19:16:20.931Z,99870.30
2019-06-20T19:18:51.542Z,99881.41
2019-06-20T19:21:50.888Z,99886.43
2019-06-20T19:24:29.885Z,99891.81
2019-06-20T19:27:09.934Z,99894.09
2019-06-20T19:29:49.789Z,99900.63
2019-06-20T19:32:24.744Z,99907.68
2019-06-20T19:35:10.716Z,99904.47
2019-06-20T19:37:46.282Z,99902.98
2019-06-20T19:40:28.251Z,99906.78
2019-06-20T19:43:06.853Z,99901.37
2019-06-20T19:45:46.718Z,99897.59
2019-06-20T19:48:18.292Z,99915.80
2019-06-20T19:50:51.934Z,99923.55
2019-06-20T19:53:22.567Z,99932.23
2019-06-20T19:55:56.048Z,99936.56
2019-06-20T19:58:28.063Z,99934.63
2019-06-20T20:01:01.016Z,99936.58
2019-06-20T20:03:33.523Z,99933.77
2019-06-20T20:06:13.288Z,99935.93
2019-06-20T20:08:49.763Z,99943.30
2019-06-20T20:11:28.420Z,99937.69
2019-06-20T20:13:59.580Z,99943.98
2019-06-20T20:16:30.151Z,99955.99
2019-06-20T20:19:06.264Z,99946.26
2019-06-20T20:21:38.712Z,99950.70
2019-06-20T20:24:33.766Z,99955.95
2019-06-20T20:27:09.515Z,99963.06
2019-06-20T20:29:56.291Z,99952.29
2019-06-20T20:33:02.854Z,99952.66
2019-06-20T20:35:51.102Z,99941.41
2019-06-20T20:38:49.384Z,99953.82
2019-06-20T20:41:47.177Z,99971.37
2019-06-20T20:44:25.447Z,99979.05
2019-06-20T20:47:15.106Z,99975.30
2019-06-20T20:50:03.085Z,99977.72
2019-06-20T20:52:38.649Z,99989.02
2019-06-20T20:55:10.653Z,99989.86
2019-06-20T20:57:43.571Z,99998.05
2019-06-20T21:00:27.957Z,99993.95
2019-06-20T21:02:59.641Z,99996.73
2019-06-20T21:05:50.995Z,100004.97
2019-06-20T21:08:20.275Z,100015.83
2019-06-20T21:10:57.426Z,100014.63
2019-06-20T21:13:36.215Z,100022.67
2019-06-20T21:16:15.275Z,100021.16
2019-06-20T21:18:46.083Z,100017.17
2019-06-20T21:21:16.520Z,100020.84
2019-06-20T21:24:04.093Z,100013.41
2019-06-20T21:27:05.161Z,100013.77
2019-06-20T21:30:08.593Z,100009.19
2019-06-20T21:33:08.596Z,100014.78
2019-06-20T21:36:10.295Z,100026.50
2019-06-20T21:39:14.425Z,100032.57
2019-06-20T21:41:54.551Z,100031.98
2019-06-20T21:44:26.963Z,100030.20
2019-06-20T21:47:10.381Z,100035.08
2019-06-20T21:49:44.676Z,100031.89
2019-06-20T21:52:21.660Z,100036.47
2019-06-20T21:55:21.460Z,100045.94
2019-06-20T21:57:52.173Z,100038.95
2019-06-20T22:00:30.705Z,100042.25
2019-06-20T22:03:02.576Z,100052.75
2019-06-20T22:05:33.189Z,100062.91
2019-06-20T22:08:19.752Z,100081.27
2019-06-20T22:10:51.054Z,100077.76
2019-06-20T22:13:24.799Z,100071.53
2019-06-20T22:15:56.802Z,100075.21
2019-06-20T22:18:28.889Z,100077.75
2019-06-20T22:21:02.292Z,100080.48
2019-06-20T22:23:32.677Z,100080.72
2019-06-20T22:26:03.040Z,100081.20
2019-06-20T22:28:33.808Z,100078.07
2019-06-20T22:31:05.465Z,100078.97
2019-06-20T22:33:43.143Z,100075.72
2019-06-20T22:36:15.121Z,100074.73
2019-06-20T22:38:48.340Z,100073.41
2019-06-20T22:41:22.999Z,100078.67
2019-06-20T22:43:53.319Z,100086.86
2019-06-20T22:46:23.657Z,100090.28
2019-06-20T22:48:56.072Z,100091.19
2019-06-20T22:51:43.847Z,100093.80
2019-06-20T22:54:16.002Z,100092.05
2019-06-20T22:56:47.911Z,100087.80
2019-06-20T22:59:18.450Z,100093.42
2019-06-20T23:01:48.975Z,100095.64
2019-06-20T23:04:21.428Z,100092.59
2019-06-20T23:06:56.742Z,100090.94
2019-06-20T23:09:27.386Z,100093.29
2019-06-20T23:11:57.988Z,100085.65
2019-06-20T23:14:31.377Z,100084.11
2019-06-20T23:17:01.721Z,100087.98
2019-06-20T23:19:32.013Z,100086.81
2019-06-20T23:22:02.599Z,100088.44
2019-06-20T23:24:35.407Z,100092.56
2019-06-20T23:27:07.116Z,100093.72
2019-06-20T23:29:38.824Z,100094.84
2019-06-20T23:32:09.384Z,100095.07
2019-06-20T23:34:39.778Z,100090.28
2019-06-20T23:37:12.978Z,100093.95
2019-06-20T23:39:42.441Z,100099.27
2019-06-20T23:42:14.101Z,100100.28
2019-06-20T23:44:47.194Z,100105.44
2019-06-20T23:47:20.310Z,100102.02
2019-06-20T23:49:52.975Z,100102.75
2019-06-20T23:52:31.711Z,100109.92
2019-06-20T23:55:08.187Z,100119.83
2019-06-20T23:57:44.802Z,100117.60
